地図

経路データ

SID SEASON NUMBER BASIN SUBBASIN NAME ISO_TIME NATURE LAT LON WMO_WIND WMO_PRES WMO_AGENCY TRACK_TYPE DIST2LAND LANDFALL IFLAG USA_AGENCY USA_ATCF_ID USA_LAT USA_LON USA_RECORD USA_STATUS USA_WIND USA_PRES USA_SSHS USA_R34_NE USA_R34_SE USA_R34_SW USA_R34_NW USA_R50_NE USA_R50_SE USA_R50_SW USA_R50_NW USA_R64_NE USA_R64_SE USA_R64_SW USA_R64_NW USA_POCI USA_ROCI USA_RMW USA_EYE TOKYO_LAT TOKYO_LON TOKYO_GRADE TOKYO_WIND TOKYO_PRES TOKYO_R50_DIR TOKYO_R50_LONG TOKYO_R50_SHORT TOKYO_R30_DIR TOKYO_R30_LONG TOKYO_R30_SHORT TOKYO_LAND CMA_LAT CMA_LON CMA_CAT CMA_WIND CMA_PRES HKO_LAT HKO_LON HKO_CAT HKO_WIND HKO_PRES NEWDELHI_LAT NEWDELHI_LON NEWDELHI_GRADE NEWDELHI_WIND NEWDELHI_PRES NEWDELHI_CI NEWDELHI_DP NEWDELHI_POCI REUNION_LAT REUNION_LON REUNION_TYPE REUNION_WIND REUNION_PRES REUNION_TNUM REUNION_CI REUNION_RMW REUNION_R34_NE REUNION_R34_SE REUNION_R34_SW REUNION_R34_NW REUNION_R50_NE REUNION_R50_SE REUNION_R50_SW REUNION_R50_NW REUNION_R64_NE REUNION_R64_SE REUNION_R64_SW REUNION_R64_NW BOM_LAT BOM_LON BOM_TYPE BOM_WIND BOM_PRES BOM_TNUM BOM_CI BOM_RMW BOM_R34_NE BOM_R34_SE BOM_R34_SW BOM_R34_NW BOM_R50_NE BOM_R50_SE BOM_R50_SW BOM_R50_NW BOM_R64_NE BOM_R64_SE BOM_R64_SW BOM_R64_NW BOM_ROCI BOM_POCI BOM_EYE BOM_POS_METHOD BOM_PRES_METHOD NADI_LAT NADI_LON NADI_CAT NADI_WIND NADI_PRES WELLINGTON_LAT WELLINGTON_LON WELLINGTON_WIND WELLINGTON_PRES DS824_LAT DS824_LON DS824_STAGE DS824_WIND DS824_PRES TD9636_LAT TD9636_LON TD9636_STAGE TD9636_WIND TD9636_PRES TD9635_LAT TD9635_LON TD9635_WIND TD9635_PRES TD9635_ROCI NEUMANN_LAT NEUMANN_LON NEUMANN_CLASS NEUMANN_WIND NEUMANN_PRES MLC_LAT MLC_LON MLC_CLASS MLC_WIND MLC_PRES USA_GUST BOM_GUST BOM_GUST_PER REUNION_GUST REUNION_GUST_PER USA_SEAHGT USA_SEARAD_NE USA_SEARAD_SE USA_SEARAD_SW USA_SEARAD_NW STORM_SPEED STORM_DIR
1974345S15177 1975 139 SP MM NOT_NAMED 1974-12-11 00:00:00 TS -15.3000 177.000 main 224 188 O________OO_O_ jtwc_sh SH051975 -15.3000 177.000 -1 -15.3000 177.000 TC 35 -15.3000 177.000 2 -15.3000 177.000 TC 20 14 82
1974345S15177 1975 139 SP MM NOT_NAMED 1974-12-11 03:00:00 TS -15.1968 177.738 main 188 169 P________PP_P_ SH051975 -15.1956 177.760 -1 -15.1956 177.760 TC 35 -15.2007 177.742 2 -15.1953 177.688 TC 20 14 82
1974345S15177 1975 139 SP MM NOT_NAMED 1974-12-11 06:00:00 TS -15.1025 178.469 main 165 148 O________OP_O_ jtwc_sh SH051975 -15.1000 178.500 -1 -15.1000 178.500 TC 35 -15.1100 178.478 2 -15.1000 178.400 TC 20 14 83
1974345S15177 1975 139 SP MM NOT_NAMED 1974-12-11 09:00:00 TS -15.0303 179.191 main 148 134 P________PP_P_ SH051975 -15.0272 179.208 -1 -15.0272 179.208 TC 35 -15.0394 179.199 2 -15.0274 179.150 TC 22 14 86
1974345S15177 1975 139 SP MM NOT_NAMED 1974-12-11 12:00:00 TS -15.0000 179.900 main 134 134 O________OO_O_ jtwc_sh SH051975 -15.0000 179.900 -1 -15.0000 179.900 TC 35 -15.0000 179.900 2 -15.0000 179.900 TC 25 14 89
1974345S15177 1975 139 SP MM NOT_NAMED 1974-12-11 15:00:00 TS -15.0157 180.597 main 153 153 P________PP_P_ SH051975 -15.0198 -179.400 -1 -15.0198 -179.400 TC 35 -15.0036 -179.420 2 -15.0197 -179.392 TC 25 13 94
1974345S15177 1975 139 SP MM NOT_NAMED 1974-12-11 18:00:00 TS -15.0908 181.289 main 194 194 O________OP_O_ jtwc_sh SH051975 -15.1000 -178.700 -1 -15.1000 181.300 TC 35 -15.0630 -178.743 2 -15.1000 -178.700 TC 25 13 98
1974345S15177 1975 139 SP MM NOT_NAMED 1974-12-11 21:00:00 TS -15.2012 181.974 main 251 251 P________PP_P_ SH051975 -15.2046 -178.015 -1 -15.2046 -178.015 TC 35 -15.1909 -178.045 2 -15.2045 -178.030 TC 27 14 103
1974345S15177 1975 139 SP MM NOT_NAMED 1974-12-12 00:00:00 TS -15.4000 182.700 main 312 312 O________OO_O_ jtwc_sh SH051975 -15.4000 -177.300 -1 -15.4000 182.700 TC 35 -15.4000 -177.300 2 -15.4000 -177.300 TC 30 15 109
1974345S15177 1975 139 SP MM NOT_NAMED 1974-12-12 03:00:00 TS -15.7107 183.490 main 389 389 P________PP_P_ SH051975 -15.7121 -176.537 -1 -15.7121 -176.537 TC 35 -15.7058 -176.544 2 -15.7126 -176.423 TC 30 17 114
1974345S15177 1975 139 SP MM NOT_NAMED 1974-12-12 06:00:00 TS -16.0965 184.343 main 421 387 O________OP_O_ jtwc_sh SH051975 -16.1000 -175.700 -1 -16.1000 184.300 TC 35 -16.0862 -175.729 2 -16.1000 -175.500 TC 30 18 116
1974345S15177 1975 139 SP MM NOT_NAMED 1974-12-12 09:00:00 TS -16.4988 185.200 main 383 367 P________PP_P_ SH051975 -16.4989 -174.832 -1 -16.4989 -174.832 TC 35 -16.4986 -174.825 2 -16.4986 -174.709 TC 30 20 114
1974345S15177 1975 139 SP MM NOT_NAMED 1974-12-12 12:00:00 TS -16.9000 186.200 main 370 365 O________OO_O_ jtwc_sh SH051975 -16.9000 -173.800 -1 -16.9000 186.200 TC 35 -16.9000 -173.800 2 -16.9000 -173.800 TC 30 23 109
1974345S15177 1975 139 SP MM NOT_NAMED 1974-12-12 15:00:00 TS -17.2681 187.473 main 391 391 P________PP_P_ SH051975 -17.2730 -172.495 -1 -17.2730 -172.495 TC 35 -17.2538 -172.551 2 -17.2728 -172.567 TC 32 26 105
1974345S15177 1975 139 SP MM NOT_NAMED 1974-12-12 18:00:00 TS -17.5952 188.851 main 441 441 O________OP_O_ jtwc_sh SH051975 -17.6000 -171.100 -1 -17.6000 188.900 TC 35 -17.5807 -171.195 2 -17.6000 -171.200 TC 35 27 103
1974345S15177 1975 139 SP MM NOT_NAMED 1974-12-12 21:00:00 TS -17.8766 190.194 main 525 525 P________PP_P_ SH051975 -17.8799 -169.775 -1 -17.8799 -169.775 TC 35 -17.8665 -169.841 2 -17.8803 -169.832 TC 35 25 102
1974345S15177 1975 139 SP MM NOT_NAMED 1974-12-13 00:00:00 TS -18.1000 191.400 main 616 616 O________OO_O_ jtwc_sh SH051975 -18.1000 -168.600 -1 -18.1000 191.400 TC 35 -18.1000 -168.600 2 -18.1000 -168.600 TC 35 21 101
1974345S15177 1975 139 SP MM NOT_NAMED 1974-12-13 03:00:00 TS -18.2721 192.331 main 696 696 P________PP_P_ SH051975 -18.2712 -167.690 -1 -18.2712 -167.690 TC 35 -18.2748 -167.615 2 -18.2711 -167.682 TC 37 17 100
1974345S15177 1975 139 SP MM NOT_NAMED 1974-12-13 06:00:00 TS -18.4011 193.136 main 765 765 O________OP_O_ jtwc_sh SH051975 -18.4000 -166.900 -1 -18.4000 193.100 TC 35 -18.4043 -166.756 2 -18.4000 -166.900 TC 40 16 99
1974345S15177 1975 139 SP MM NOT_NAMED 1974-12-13 09:00:00 TS -18.5072 193.976 main 845 845 P________PP_P_ SH051975 -18.5072 -166.042 -1 -18.5072 -166.042 TC 35 -18.5070 -165.968 2 -18.5072 -166.042 TC 42 16 97
1974345S15177 1975 139 SP MM NOT_NAMED 1974-12-13 12:00:00 TS -18.6000 194.800 main 920 920 O________OO_O_ jtwc_sh SH051975 -18.6000 -165.200 -1 -18.6000 194.800 TC 35 -18.6000 -165.200 2 -18.6000 -165.200 TC 45 15 97
1974345S15177 1975 139 SP MM NOT_NAMED 1974-12-13 15:00:00 TS -18.6895 195.597 main 996 996 P________PP_P_ SH051975 -18.6995 -164.400 -1 -18.6995 -164.400 TC 35 -18.6597 -164.414 2 -18.6995 -164.400 TC 42 15 97
1974345S15177 1975 139 SP MM NOT_NAMED 1974-12-13 18:00:00 TS -18.7802 196.393 main 1074 1074 O________OP_O_ jtwc_sh SH051975 -18.8000 -163.600 -1 -18.8000 196.400 TC 35 -18.7208 -163.628 2 -18.8000 -163.600 TC 40 15 97
1974345S15177 1975 139 SP MM NOT_NAMED 1974-12-13 21:00:00 TS -18.8629 197.201 main 1153 1153 P________PP_P_ SH051975 -18.8767 -162.794 -1 -18.8767 -162.794 TC 35 -18.8217 -162.803 2 -18.8765 -162.802 TC 40 16 98
1974345S15177 1975 139 SP MM NOT_NAMED 1974-12-14 00:00:00 TS -19.0000 198.100 main 1243 1243 O________OO_O_ jtwc_sh SH051975 -19.0000 -161.900 -1 -19.0000 198.100 TC 35 -19.0000 -161.900 2 -19.0000 -161.900 TC 40 19 100
1974345S15177 1975 139 SP MM NOT_NAMED 1974-12-14 03:00:00 TS -19.2072 199.187 main 1357 1357 P________PP_P_ SH051975 -19.1898 -160.844 -1 -19.1898 -160.844 TC 35 -19.2589 -160.778 2 -19.1902 -160.787 TC 37 22 104
1974345S15177 1975 139 SP MM NOT_NAMED 1974-12-14 06:00:00 TS -19.5245 200.354 main 1485 1485 O________OP_O_ jtwc_sh SH051975 -19.5000 -159.700 -1 -19.5000 200.300 TC 35 -19.5979 -159.584 2 -19.5000 -159.600 TC 35 24 109
1974345S15177 1975 139 SP MM NOT_NAMED 1974-12-14 09:00:00 TS -19.9642 201.552 main 1623 1623 P________PP_P_ SH051975 -19.9482 -158.476 -1 -19.9482 -158.476 TC 35 -20.0123 -158.424 2 -19.9478 -158.418 TC 35 23 115
1974345S15177 1975 139 SP MM NOT_NAMED 1974-12-14 12:00:00 TS -20.5000 202.600 main 1741 1741 O________OO_O_ jtwc_sh SH051975 -20.5000 -157.400 -1 -20.5000 202.600 TC 35 -20.5000 -157.400 2 -20.5000 -157.400 TC 35 20 124
1974345S15177 1975 139 SP MM NOT_NAMED 1974-12-14 15:00:00 TS -21.0659 203.285 main 1834 1834 P________PP_P_ SH051975 -21.0761 -156.716 -1 -21.0761 -156.716 TC 35 -21.0352 -156.702 2 -21.0763 -156.724 TC 35 16 136
1974345S15177 1975 139 SP MM NOT_NAMED 1974-12-14 18:00:00 TS -21.6862 203.815 main 1909 1909 O________OP_O_ jtwc_sh SH051975 -21.7000 -156.200 -1 -21.7000 203.800 TC 35 -21.6448 -156.141 2 -21.7000 -156.200 TC 35 16 141
1974345S15177 1975 139 SP MM NOT_NAMED 1974-12-14 21:00:00 TS -22.3275 204.367 main 1993 1993 P________PP_P_ SH051975 -22.3343 -155.636 -1 -22.3343 -155.636 TC 35 -22.3073 -155.610 2 -22.3341 -155.651 TC 35 17 140
1974345S15177 1975 139 SP MM NOT_NAMED 1974-12-15 00:00:00 TS -23.0000 205.000 main 2083 2083 O________OO_O_ jtwc_sh SH051975 -23.0000 -155.000 -1 -23.0000 205.000 TC 35 -23.0000 -155.000 2 -23.0000 -155.000 TC 35 19 136
1974345S15177 1975 139 SP MM NOT_NAMED 1974-12-15 03:00:00 TS -23.6947 205.809 main 2191 2191 P________PP_P_ SH051975 -23.6921 -154.217 -1 -23.6921 -154.217 TC 30 -23.7019 -154.226 2 -23.6928 -154.102 TC 32 21 131
1974345S15177 1975 139 SP MM NOT_NAMED 1974-12-15 06:00:00 TS -24.4013 206.749 main 2308 2308 O________OP_O_ jtwc_sh SH051975 -24.4000 -153.300 -1 -24.4000 206.700 TC 25 -24.4053 -153.306 2 -24.4000 -153.100 TC 30 23 128
1974345S15177 1975 139 SP MM NOT_NAMED 1974-12-15 09:00:00 TS -25.1043 207.756 main 2443 2443 P________PP_P_ SH051975 -25.1041 -152.280 -1 -25.1041 -152.280 TC 25 -25.1058 -152.282 2 -25.1032 -152.134 TC 30 23 127
1974345S15177 1975 139 SP MM NOT_NAMED 1974-12-15 12:00:00 TS -25.8000 208.800 main 2568 O________OO_O_ jtwc_sh SH051975 -25.8000 -151.200 -1 -25.8000 208.800 TC 25 -25.8000 -151.200 6 -25.8000 -151.200 TC 30 23 127

デジタル台風データ・検索

IBTrACS Databaseについて

本データベースは、米国NOAAが公開する1842年以降の世界の熱帯低気圧のベストトラックデータアーカイブInternational Best Track Archive for Climate Stewardship (IBTrACS)を、ウェブで閲覧しやすい形式に変換したものです。

最終更新日:2021-12-01